createdAt,value
2018-07-10T00:02:12.145Z,14.78
2018-07-10T00:04:40.437Z,12.66
2018-07-10T00:07:08.754Z,11.80
2018-07-10T00:09:37.051Z,16.58
2018-07-10T00:12:05.370Z,12.58
2018-07-10T00:14:33.671Z,13.40
2018-07-10T00:17:01.991Z,14.24
2018-07-10T00:19:30.282Z,11.68
2018-07-10T00:21:58.602Z,11.36
2018-07-10T00:24:26.906Z,12.56
2018-07-10T00:26:55.207Z,12.30
2018-07-10T00:29:23.525Z,12.56
2018-07-10T00:31:51.818Z,11.38
2018-07-10T00:34:20.136Z,11.30
2018-07-10T00:36:48.430Z,11.40
2018-07-10T00:39:16.749Z,14.70
2018-07-10T00:41:45.053Z,14.60
2018-07-10T00:44:13.370Z,11.84
2018-07-10T00:46:41.675Z,12.02
2018-07-10T00:49:09.986Z,12.58
2018-07-10T00:51:38.277Z,12.62
2018-07-10T00:54:05.834Z,18.90
2018-07-10T00:56:34.134Z,11.08
2018-07-10T00:59:02.479Z,16.00
2018-07-10T01:01:30.774Z,13.14
2018-07-10T01:03:59.085Z,12.96
2018-07-10T01:06:27.383Z,16.10
2018-07-10T01:08:55.707Z,13.14
2018-07-10T01:11:23.998Z,16.82
2018-07-10T01:13:52.320Z,17.78
2018-07-10T01:16:20.610Z,18.02
2018-07-10T01:18:48.989Z,20.92
2018-07-10T01:21:17.258Z,12.70
2018-07-10T01:23:45.570Z,12.36
2018-07-10T01:26:13.853Z,8.54
2018-07-10T01:28:42.161Z,7.16
2018-07-10T01:31:10.455Z,8.64
2018-07-10T01:33:38.781Z,7.32
2018-07-10T01:36:07.078Z,5.90
2018-07-10T01:38:35.385Z,5.48
2018-07-10T01:41:03.674Z,6.80
2018-07-10T01:43:31.985Z,8.30
2018-07-10T01:46:00.274Z,8.68
2018-07-10T01:48:28.586Z,7.18
2018-07-10T01:50:56.878Z,7.48
2018-07-10T01:53:25.189Z,7.52
2018-07-10T01:55:53.477Z,7.82
2018-07-10T01:58:21.013Z,6.84
2018-07-10T02:00:49.305Z,8.96
2018-07-10T02:03:17.621Z,11.52
2018-07-10T02:05:45.910Z,8.12
2018-07-10T02:08:14.223Z,6.70
2018-07-10T02:10:42.507Z,6.70
2018-07-10T02:13:10.811Z,9.26
2018-07-10T02:15:39.104Z,6.42
2018-07-10T02:18:07.418Z,8.24
2018-07-10T02:20:35.711Z,7.60
2018-07-10T02:23:03.993Z,5.20
2018-07-10T02:25:32.294Z,5.74
2018-07-10T02:28:00.582Z,6.60
2018-07-10T02:30:28.890Z,5.20
2018-07-10T02:32:57.182Z,5.28
2018-07-10T02:35:25.494Z,6.88
2018-07-10T02:37:53.782Z,5.10
2018-07-10T02:40:22.119Z,7.70
2018-07-10T02:42:50.406Z,5.98
2018-07-10T02:45:18.723Z,5.02
2018-07-10T02:47:47.007Z,6.66
2018-07-10T02:50:16.186Z,5.06
2018-07-10T02:52:44.477Z,7.96
2018-07-10T02:55:12.782Z,7.16
2018-07-10T02:57:41.066Z,9.60
2018-07-10T03:00:09.374Z,5.58
2018-07-10T03:02:37.677Z,6.88
2018-07-10T03:05:05.987Z,7.26
2018-07-10T03:07:34.281Z,4.92
2018-07-10T03:10:02.590Z,5.98
2018-07-10T03:12:30.876Z,8.52
2018-07-10T03:14:59.190Z,6.42
2018-07-10T03:17:27.478Z,5.64
2018-07-10T03:19:55.794Z,5.94
2018-07-10T03:22:24.082Z,5.22
2018-07-10T03:24:52.393Z,5.50
2018-07-10T03:27:20.679Z,6.20
2018-07-10T03:29:48.986Z,5.24
2018-07-10T03:32:17.266Z,7.50
2018-07-10T03:34:45.583Z,6.40
2018-07-10T03:37:13.865Z,5.72
2018-07-10T03:39:42.175Z,7.80
2018-07-10T03:42:10.467Z,7.30
2018-07-10T03:44:38.778Z,7.16
2018-07-10T03:47:07.085Z,12.08
2018-07-10T03:49:35.403Z,7.54
2018-07-10T03:52:03.685Z,6.62
2018-07-10T03:54:32.002Z,8.72
2018-07-10T03:57:00.282Z,6.50
2018-07-10T03:59:28.597Z,6.58
2018-07-10T04:01:56.889Z,12.08
2018-07-10T04:04:25.226Z,6.60
2018-07-10T04:06:53.509Z,7.10
2018-07-10T04:09:21.046Z,7.90
2018-07-10T04:11:49.411Z,9.62
2018-07-10T04:14:17.697Z,6.04
2018-07-10T04:16:46.015Z,7.18
2018-07-10T04:19:14.334Z,6.80
2018-07-10T04:21:42.629Z,8.98
2018-07-10T04:24:10.926Z,6.18
2018-07-10T04:26:39.238Z,8.18
2018-07-10T04:29:07.534Z,6.30
2018-07-10T04:31:35.837Z,7.48
2018-07-10T04:34:04.117Z,10.64
2018-07-10T04:36:32.430Z,7.18
2018-07-10T04:39:00.722Z,6.80
2018-07-10T04:41:29.035Z,11.04
2018-07-10T04:43:57.322Z,7.78
2018-07-10T04:46:25.629Z,8.62
2018-07-10T04:48:53.905Z,6.38
2018-07-10T04:51:22.216Z,6.98
2018-07-10T04:53:50.502Z,7.90
2018-07-10T04:56:18.807Z,9.72
2018-07-10T04:58:47.094Z,7.54
2018-07-10T05:01:15.409Z,7.48
2018-07-10T05:03:43.686Z,7.74
2018-07-10T05:06:11.989Z,5.86
2018-07-10T05:08:40.274Z,7.34
2018-07-10T05:11:08.586Z,10.76
2018-07-10T05:13:36.870Z,7.84
2018-07-10T05:16:05.191Z,10.14
2018-07-10T05:18:33.482Z,9.50
2018-07-10T05:21:01.796Z,11.22
2018-07-10T05:23:30.091Z,7.24
2018-07-10T05:25:58.397Z,8.16
2018-07-10T05:28:26.686Z,8.08
2018-07-10T05:30:54.995Z,8.24
2018-07-10T05:33:23.278Z,7.70
2018-07-10T05:35:51.582Z,7.14
2018-07-10T05:38:19.874Z,6.82
2018-07-10T05:40:48.183Z,8.14
2018-07-10T05:43:16.473Z,9.64
2018-07-10T05:45:44.790Z,8.10
2018-07-10T05:48:13.074Z,8.14
2018-07-10T05:50:41.382Z,9.38
2018-07-10T05:53:09.682Z,7.42
2018-07-10T05:55:37.989Z,7.08
2018-07-10T05:58:06.278Z,8.90
2018-07-10T06:00:34.578Z,9.16
2018-07-10T06:03:02.857Z,6.78
2018-07-10T06:05:31.174Z,9.44
2018-07-10T06:07:59.458Z,7.08
2018-07-10T06:10:27.798Z,6.06
2018-07-10T06:12:56.084Z,8.94
2018-07-10T06:15:24.404Z,13.02
2018-07-10T06:17:52.696Z,7.14
2018-07-10T06:20:21.008Z,8.64
2018-07-10T06:22:49.317Z,8.10
2018-07-10T06:25:17.618Z,14.84
2018-07-10T06:27:45.930Z,13.44
2018-07-10T06:30:14.925Z,9.06
2018-07-10T06:32:43.233Z,7.32
2018-07-10T06:35:11.534Z,24.04
2018-07-10T06:37:39.871Z,7.06
2018-07-10T06:40:08.172Z,8.08
2018-07-10T06:42:36.485Z,8.28
2018-07-10T06:45:04.775Z,5.10
2018-07-10T06:47:33.092Z,5.70
2018-07-10T06:50:01.398Z,14.64
2018-07-10T06:52:29.892Z,7.42
2018-07-10T06:54:58.027Z,5.86
2018-07-10T06:57:26.338Z,9.68
2018-07-10T06:59:54.635Z,6.38
2018-07-10T07:02:22.955Z,5.80
2018-07-10T07:04:51.241Z,5.86
2018-07-10T07:07:19.554Z,11.68
2018-07-10T07:09:47.838Z,5.26
2018-07-10T07:12:16.150Z,5.36
2018-07-10T07:14:44.442Z,6.06
2018-07-10T07:17:12.755Z,4.84
2018-07-10T07:19:41.053Z,8.92
2018-07-10T07:22:09.366Z,5.66
2018-07-10T07:24:37.650Z,8.34
2018-07-10T07:27:05.962Z,4.22
2018-07-10T07:29:33.490Z,6.02
2018-07-10T07:32:01.799Z,5.72
2018-07-10T07:34:30.087Z,4.76
2018-07-10T07:36:57.621Z,6.90
2018-07-10T07:39:25.915Z,6.22
2018-07-10T07:41:54.226Z,3.98
2018-07-10T07:44:22.532Z,8.12
2018-07-10T07:46:50.837Z,5.10
2018-07-10T07:49:19.123Z,4.64
2018-07-10T07:51:47.431Z,4.46
2018-07-10T07:54:15.714Z,4.06
2018-07-10T07:56:44.026Z,4.18
2018-07-10T07:59:12.314Z,3.56
2018-07-10T08:01:40.617Z,8.18
2018-07-10T08:04:08.914Z,5.66
2018-07-10T08:06:36.458Z,5.02
2018-07-10T08:09:04.754Z,8.86
2018-07-10T08:11:33.066Z,4.10
2018-07-10T08:14:01.357Z,8.06
2018-07-10T08:16:29.679Z,3.58
2018-07-10T08:18:57.975Z,3.40
2018-07-10T08:21:26.265Z,3.70
2018-07-10T08:23:54.578Z,3.42
2018-07-10T08:26:22.877Z,6.14
2018-07-10T08:28:51.199Z,3.34
2018-07-10T08:31:19.481Z,4.18
2018-07-10T08:33:47.940Z,4.98
2018-07-10T08:36:16.132Z,4.06
2018-07-10T08:38:44.442Z,3.86
2018-07-10T08:41:12.760Z,4.62
2018-07-10T08:43:41.070Z,5.08
2018-07-10T08:46:09.358Z,2.96
2018-07-10T08:48:37.675Z,3.82
2018-07-10T08:51:05.966Z,3.36
2018-07-10T08:53:34.282Z,4.10
2018-07-10T08:56:02.561Z,4.44
2018-07-10T08:58:30.870Z,5.14
2018-07-10T09:00:59.158Z,4.80
2018-07-10T09:03:27.474Z,3.70
2018-07-10T09:05:55.767Z,5.92
2018-07-10T09:08:24.079Z,6.02
2018-07-10T09:10:52.375Z,3.34
2018-07-10T09:13:20.683Z,4.94
2018-07-10T09:15:48.970Z,3.04
2018-07-10T09:18:17.279Z,4.82
2018-07-10T09:20:45.566Z,4.02
2018-07-10T09:23:13.928Z,4.38
2018-07-10T09:25:42.187Z,3.92
2018-07-10T09:28:10.489Z,3.38
2018-07-10T09:30:38.785Z,3.36
2018-07-10T09:33:07.101Z,2.30
2018-07-10T09:35:35.391Z,4.38
2018-07-10T09:38:03.720Z,3.32
2018-07-10T09:40:31.998Z,3.02
2018-07-10T09:43:00.319Z,2.58
2018-07-10T09:45:28.607Z,3.32
2018-07-10T09:47:56.922Z,4.92
2018-07-10T09:50:25.212Z,3.34
2018-07-10T09:52:53.540Z,3.20
2018-07-10T09:55:21.834Z,4.52
2018-07-10T09:57:50.179Z,2.66
2018-07-10T10:00:18.470Z,5.80
2018-07-10T10:02:46.779Z,4.00
2018-07-10T10:05:15.069Z,5.12
2018-07-10T10:07:43.373Z,4.32
2018-07-10T10:10:11.666Z,2.88
2018-07-10T10:12:40.026Z,3.02
2018-07-10T10:15:08.304Z,4.08
2018-07-10T10:17:36.615Z,5.14
2018-07-10T10:20:04.923Z,4.52
2018-07-10T10:22:33.209Z,4.06
2018-07-10T10:25:01.523Z,6.54
2018-07-10T10:27:29.817Z,5.56
2018-07-10T10:29:58.132Z,16.30
2018-07-10T10:32:26.413Z,3.32
2018-07-10T10:34:54.727Z,8.10
2018-07-10T10:37:23.022Z,6.44
2018-07-10T10:39:51.330Z,3.52
2018-07-10T10:42:19.616Z,3.60
2018-07-10T10:44:47.958Z,6.28
2018-07-10T10:47:16.254Z,7.96
2018-07-10T10:49:44.562Z,4.26
2018-07-10T10:52:12.858Z,4.86
2018-07-10T10:54:41.166Z,5.32
2018-07-10T10:57:09.462Z,6.36
2018-07-10T10:59:37.821Z,4.72
2018-07-10T11:02:06.082Z,3.82
2018-07-10T11:04:34.432Z,4.96
2018-07-10T11:07:02.739Z,15.94
2018-07-10T11:09:31.048Z,3.60
2018-07-10T11:11:59.334Z,5.58
2018-07-10T11:14:26.884Z,4.44
2018-07-10T11:16:55.183Z,4.60
2018-07-10T11:19:23.503Z,4.04
2018-07-10T11:21:51.793Z,4.44
2018-07-10T11:24:20.105Z,5.02
2018-07-10T11:26:48.386Z,4.38
2018-07-10T11:29:16.702Z,3.58
2018-07-10T11:31:45.003Z,7.40
2018-07-10T11:34:13.322Z,4.72
2018-07-10T11:36:41.616Z,5.40
2018-07-10T11:39:09.995Z,4.12
2018-07-10T11:41:38.228Z,2.68
2018-07-10T11:44:06.542Z,5.02
2018-07-10T11:46:34.853Z,3.22
2018-07-10T11:49:03.167Z,5.20
2018-07-10T11:51:31.576Z,3.10
2018-07-10T11:53:59.774Z,3.22
2018-07-10T11:56:28.066Z,6.60
2018-07-10T11:58:56.376Z,4.40
2018-07-10T12:01:24.662Z,8.44
2018-07-10T12:03:53.032Z,4.84
2018-07-10T12:06:21.322Z,5.82
2018-07-10T12:08:49.659Z,7.48
2018-07-10T12:11:17.942Z,6.72
2018-07-10T12:13:46.251Z,6.00
2018-07-10T12:16:14.546Z,5.26
2018-07-10T12:18:42.838Z,4.90
2018-07-10T12:21:11.154Z,6.30
2018-07-10T12:23:39.468Z,12.10
2018-07-10T12:26:07.791Z,9.00
2018-07-10T12:28:36.086Z,4.56
2018-07-10T12:31:04.398Z,4.90
2018-07-10T12:33:32.682Z,4.82
2018-07-10T12:36:00.990Z,5.82
2018-07-10T12:38:29.278Z,5.94
2018-07-10T12:40:57.598Z,5.10
2018-07-10T12:43:25.886Z,4.74
2018-07-10T12:45:54.194Z,6.08
2018-07-10T12:48:22.657Z,6.50
2018-07-10T12:50:50.975Z,8.48
2018-07-10T12:53:18.501Z,9.92
2018-07-10T12:55:46.817Z,8.20
2018-07-10T12:58:15.115Z,7.08
2018-07-10T13:00:43.427Z,7.68
2018-07-10T13:03:11.717Z,7.52
2018-07-10T13:05:40.039Z,6.22
2018-07-10T13:08:08.333Z,6.04
2018-07-10T13:10:36.650Z,6.62
2018-07-10T13:13:04.934Z,6.98
2018-07-10T13:15:33.237Z,7.40
2018-07-10T13:18:01.549Z,5.90
2018-07-10T13:20:29.859Z,7.88
2018-07-10T13:22:58.154Z,6.08
2018-07-10T13:25:26.459Z,6.62
2018-07-10T13:27:54.742Z,5.98
2018-07-10T13:30:23.054Z,6.10
2018-07-10T13:32:51.342Z,7.84
2018-07-10T13:35:19.662Z,6.76
2018-07-10T13:37:47.945Z,6.80
2018-07-10T13:40:15.495Z,5.96
2018-07-10T13:42:43.777Z,6.00
2018-07-10T13:45:12.086Z,6.02
2018-07-10T13:47:40.378Z,6.08
2018-07-10T13:50:08.690Z,5.96
2018-07-10T13:52:36.986Z,5.56
2018-07-10T13:55:04.529Z,7.14
2018-07-10T13:57:32.819Z,6.44
2018-07-10T14:00:01.134Z,7.70
2018-07-10T14:02:29.426Z,6.68
2018-07-10T14:04:57.733Z,9.02
2018-07-10T14:07:26.022Z,10.34
2018-07-10T14:09:54.340Z,7.82
2018-07-10T14:12:22.755Z,8.60
2018-07-10T14:14:50.217Z,11.38
2018-07-10T14:17:18.514Z,15.76
2018-07-10T14:19:46.802Z,8.80
2018-07-10T14:22:15.160Z,11.08
2018-07-10T14:24:43.427Z,7.88
2018-07-10T14:27:11.747Z,8.06
2018-07-10T14:29:40.071Z,14.34
2018-07-10T14:32:08.387Z,10.78
2018-07-10T14:34:36.682Z,17.70
2018-07-10T14:37:05.037Z,28.00
2018-07-10T14:39:33.303Z,15.22
2018-07-10T14:42:01.614Z,9.02
2018-07-10T14:44:29.903Z,12.04
2018-07-10T14:46:58.214Z,9.12
2018-07-10T14:49:26.506Z,9.86
2018-07-10T14:51:54.874Z,11.64
2018-07-10T14:54:23.125Z,7.48
2018-07-10T14:56:51.441Z,8.96
2018-07-10T14:59:19.735Z,7.06
2018-07-10T15:01:48.042Z,9.24
2018-07-10T15:04:16.330Z,6.00
2018-07-10T15:06:44.644Z,6.76
2018-07-10T15:09:12.936Z,10.00
2018-07-10T15:11:41.255Z,7.14
2018-07-10T15:14:09.546Z,8.78
2018-07-10T15:16:37.860Z,9.32
2018-07-10T15:19:06.150Z,8.20
2018-07-10T15:21:34.465Z,6.92
2018-07-10T15:24:02.751Z,12.52
2018-07-10T15:26:31.072Z,9.28
2018-07-10T15:28:59.373Z,12.82
2018-07-10T15:31:27.684Z,7.20
2018-07-10T15:33:55.978Z,8.28
2018-07-10T15:36:24.289Z,7.88
2018-07-10T15:38:52.591Z,7.16
2018-07-10T15:41:20.926Z,9.12
2018-07-10T15:43:49.222Z,7.14
2018-07-10T15:46:17.543Z,9.46
2018-07-10T15:48:45.842Z,30.66
2018-07-10T15:51:14.158Z,19.48
2018-07-10T15:53:42.450Z,12.54
2018-07-10T15:56:10.766Z,10.46
2018-07-10T15:58:39.106Z,9.56
2018-07-10T16:01:07.398Z,10.44
2018-07-10T16:03:34.977Z,13.60
2018-07-10T16:06:03.335Z,10.66
2018-07-10T16:08:31.611Z,15.90
2018-07-10T16:10:59.932Z,20.70
2018-07-10T16:13:28.234Z,10.36
2018-07-10T16:15:56.553Z,12.42
2018-07-10T16:18:24.874Z,13.02
2018-07-10T16:20:53.191Z,12.12
2018-07-10T16:23:21.530Z,12.04
2018-07-10T16:25:49.936Z,12.00
2018-07-10T16:28:18.194Z,11.06
2018-07-10T16:30:46.491Z,10.02
2018-07-10T16:33:14.858Z,12.36
2018-07-10T16:35:43.158Z,13.36
2018-07-10T16:38:11.463Z,8.96
2018-07-10T16:40:39.746Z,9.08
2018-07-10T16:43:08.058Z,10.64
2018-07-10T16:45:36.381Z,9.88
2018-07-10T16:48:04.745Z,10.62
2018-07-10T16:50:33.121Z,9.02
2018-07-10T16:53:01.548Z,7.86
2018-07-10T16:55:29.847Z,9.24
2018-07-10T16:57:58.162Z,7.42
2018-07-10T17:00:26.487Z,8.50
2018-07-10T17:02:54.800Z,7.90
2018-07-10T17:05:23.103Z,7.10
2018-07-10T17:07:51.435Z,7.76
2018-07-10T17:10:19.729Z,6.78
2018-07-10T17:12:48.150Z,6.30
2018-07-10T17:15:16.537Z,8.02
2018-07-10T17:17:44.786Z,6.78
2018-07-10T17:20:13.075Z,5.34
2018-07-10T17:22:41.382Z,8.70
2018-07-10T17:25:09.671Z,5.86
2018-07-10T17:27:38.019Z,5.84
2018-07-10T17:30:06.315Z,4.80
2018-07-10T17:32:34.625Z,5.92
2018-07-10T17:35:02.910Z,5.10
2018-07-10T17:37:31.294Z,5.56
2018-07-10T17:39:59.584Z,5.10
2018-07-10T17:42:27.898Z,5.94
2018-07-10T17:44:56.190Z,6.68
2018-07-10T17:47:24.509Z,6.06
2018-07-10T17:49:52.802Z,7.34
2018-07-10T17:52:21.115Z,8.38
2018-07-10T17:54:49.399Z,6.30
2018-07-10T17:57:17.708Z,8.56
2018-07-10T17:59:45.990Z,8.10
2018-07-10T18:02:14.299Z,8.10
2018-07-10T18:04:42.602Z,8.60
2018-07-10T18:07:10.149Z,9.22
2018-07-10T18:09:38.438Z,11.00
2018-07-10T18:12:06.762Z,9.02
2018-07-10T18:14:35.047Z,8.68
2018-07-10T18:17:03.343Z,9.30
2018-07-10T18:19:31.650Z,10.24
2018-07-10T18:21:59.937Z,9.94
2018-07-10T18:24:28.250Z,12.32
2018-07-10T18:26:56.539Z,10.56
2018-07-10T18:29:24.853Z,9.54
2018-07-10T18:31:53.143Z,9.46
2018-07-10T18:34:21.454Z,10.10
2018-07-10T18:36:49.746Z,9.94
2018-07-10T18:39:18.058Z,9.28
2018-07-10T18:41:46.341Z,9.00
2018-07-10T18:44:14.655Z,9.88
2018-07-10T18:46:42.979Z,9.72
2018-07-10T18:49:11.286Z,8.58
2018-07-10T18:51:39.583Z,10.04
2018-07-10T18:54:07.929Z,9.48
2018-07-10T18:56:36.194Z,11.26
2018-07-10T18:59:04.572Z,13.56
2018-07-10T19:01:32.831Z,10.56
2018-07-10T19:04:01.166Z,10.60
2018-07-10T19:06:29.466Z,13.84
2018-07-10T19:08:57.786Z,11.52
2018-07-10T19:11:26.108Z,10.34
2018-07-10T19:13:54.420Z,13.84
2018-07-10T19:16:22.710Z,14.12
2018-07-10T19:18:51.027Z,11.94
2018-07-10T19:21:19.310Z,14.08
2018-07-10T19:23:47.626Z,12.70
2018-07-10T19:26:15.923Z,14.08
2018-07-10T19:28:44.236Z,12.70
2018-07-10T19:31:12.535Z,14.10
2018-07-10T19:33:40.854Z,17.18
2018-07-10T19:36:09.162Z,22.50
2018-07-10T19:38:37.483Z,19.30
2018-07-10T19:41:05.777Z,15.26
2018-07-10T19:43:34.092Z,16.28
2018-07-10T19:46:02.416Z,18.94
2018-07-10T19:48:30.725Z,18.70
2018-07-10T19:50:59.026Z,18.80
2018-07-10T19:53:27.340Z,20.54
2018-07-10T19:55:55.631Z,21.64
2018-07-10T19:58:23.967Z,16.94
2018-07-10T20:00:52.263Z,17.02
2018-07-10T20:03:21.740Z,21.48
2018-07-10T20:05:48.886Z,18.72
2018-07-10T20:08:17.193Z,19.12
2018-07-10T20:10:45.520Z,21.40
2018-07-10T20:13:13.841Z,21.94
2018-07-10T20:15:42.232Z,15.80
2018-07-10T20:18:10.521Z,18.42
2018-07-10T20:20:38.906Z,21.78
2018-07-10T20:23:07.218Z,18.12
2018-07-10T20:25:35.542Z,28.68
2018-07-10T20:28:03.843Z,20.28
2018-07-10T20:30:32.162Z,31.84
2018-07-10T20:33:00.507Z,27.62
2018-07-10T20:35:28.856Z,23.04
2018-07-10T20:37:57.149Z,19.82
2018-07-10T20:40:25.471Z,22.66
2018-07-10T20:42:53.768Z,19.80
2018-07-10T20:45:22.097Z,24.34
2018-07-10T20:47:50.401Z,28.30
2018-07-10T20:50:18.715Z,21.96
2018-07-10T20:52:47.009Z,23.14
2018-07-10T20:55:15.325Z,26.22
2018-07-10T20:57:43.626Z,19.62
2018-07-10T21:00:11.939Z,22.82
2018-07-10T21:02:40.231Z,23.40
2018-07-10T21:05:08.542Z,27.80
2018-07-10T21:07:36.846Z,26.00
2018-07-10T21:10:05.157Z,27.24
2018-07-10T21:12:33.447Z,24.96
2018-07-10T21:15:01.766Z,26.96
2018-07-10T21:17:30.058Z,24.74
2018-07-10T21:19:58.372Z,37.84
2018-07-10T21:22:26.707Z,28.82
2018-07-10T21:24:55.007Z,23.62
2018-07-10T21:27:23.307Z,27.42
2018-07-10T21:29:51.626Z,19.34
2018-07-10T21:32:19.922Z,20.80
2018-07-10T21:34:48.242Z,21.96
2018-07-10T21:37:16.538Z,28.16
2018-07-10T21:39:44.854Z,32.18
2018-07-10T21:42:13.147Z,26.66
2018-07-10T21:44:41.459Z,28.88
2018-07-10T21:47:09.788Z,21.96
2018-07-10T21:49:38.090Z,22.00
2018-07-10T21:52:06.386Z,29.20
2018-07-10T21:54:34.701Z,30.06
2018-07-10T21:57:03.002Z,23.02
2018-07-10T21:59:31.321Z,23.90
2018-07-10T22:01:59.623Z,23.90
2018-07-10T22:04:27.944Z,27.16
2018-07-10T22:06:56.242Z,38.10
2018-07-10T22:09:24.640Z,27.28
2018-07-10T22:11:52.883Z,38.34
2018-07-10T22:14:21.174Z,31.04
2018-07-10T22:16:49.486Z,22.82
2018-07-10T22:19:17.778Z,27.02
2018-07-10T22:21:46.099Z,36.76
2018-07-10T22:24:14.406Z,30.56
2018-07-10T22:26:42.726Z,30.54
2018-07-10T22:29:11.028Z,38.18
2018-07-10T22:31:45.086Z,35.38
2018-07-10T22:34:13.384Z,22.46
2018-07-10T22:36:41.698Z,26.20
2018-07-10T22:39:09.999Z,30.84
2018-07-10T22:41:38.313Z,22.74
2018-07-10T22:44:06.606Z,22.32
2018-07-10T22:46:34.929Z,22.64
2018-07-10T22:49:03.220Z,24.40
2018-07-10T22:51:31.534Z,24.42
2018-07-10T22:53:59.825Z,24.30
2018-07-10T22:56:28.141Z,27.38
2018-07-10T22:58:56.439Z,33.30
2018-07-10T23:01:24.754Z,28.00
2018-07-10T23:03:53.059Z,23.64
2018-07-10T23:06:21.374Z,21.02
2018-07-10T23:08:49.666Z,22.26
2018-07-10T23:11:17.987Z,20.50
2018-07-10T23:13:46.283Z,26.26
2018-07-10T23:16:14.619Z,24.50
2018-07-10T23:18:42.909Z,27.74
2018-07-10T23:21:11.222Z,21.88
2018-07-10T23:23:39.518Z,23.28
2018-07-10T23:26:07.839Z,22.26
2018-07-10T23:28:36.136Z,29.56
2018-07-10T23:31:04.451Z,24.76
2018-07-10T23:33:32.754Z,19.12
2018-07-10T23:36:01.085Z,24.38
2018-07-10T23:38:29.381Z,20.74
2018-07-10T23:40:57.694Z,23.40
2018-07-10T23:43:25.995Z,26.44
2018-07-10T23:45:54.309Z,26.98
2018-07-10T23:48:22.605Z,20.62
2018-07-10T23:50:50.928Z,24.56
2018-07-10T23:53:19.222Z,19.34
2018-07-10T23:55:47.537Z,26.12
2018-07-10T23:58:15.838Z,21.62
